EDVK/KSF METAR and TAF weather

Enter ICAO airport designator
Station Type Date Time Source
EDVK METAR 2018/01/19 17:20 UTC NOAA

EDVK 191720Z 20005KT 9999 SCT030 01/M00 Q1008


Station Type Date Time Source
EDVK Decoded METAR 2018/01/19 17:20 UTC NOAA

Kassel / Calden, Germany (EDVK) 51-24N 009-23E 283M
Jan 19, 2018 - 12:20 PM EST / 2018.01.19 1720 UTC
Wind: from the SSW (200 degrees) at 6 MPH (5 KT):0
Visibility: greater than 7 mile(s):0
Sky conditions: partly cloudy
Temperature: 33 F (1 C)
Windchill: 26 F (-3 C):1
Dew Point: 32 F (0 C)
Relative Humidity: 93%
Pressure (altimeter): 29.77 in. Hg (1008 hPa)
ob: EDVK 191720Z 20005KT 9999 SCT030 01/M00 Q1008
cycle: 17

Station Type Date Time Source
EDVK TAF 2011/03/23 07:09 UTC NOAA

TAF COR EDVK 230655Z 2307/2321 30002KT 3500 BR SCT025 PROB30
TEMPO 2307/2309 1400 BCFG
BECMG 2307/2310 01007KT 8000


Example: see airport list